sensor_id;sensor_type;location;lat;lon;timestamp;P1;durP1;ratioP1;P2;durP2;ratioP2
41837;SDS011;27511;52.042;5.178;2024-01-25T00:00:41;12.80;;;2.40;;
41837;SDS011;27511;52.042;5.178;2024-01-25T00:03:07;16.35;;;2.63;;
41837;SDS011;27511;52.042;5.178;2024-01-25T00:05:32;20.25;;;3.30;;
41837;SDS011;27511;52.042;5.178;2024-01-25T00:07:58;9.75;;;2.83;;
41837;SDS011;27511;52.042;5.178;2024-01-25T00:10:23;12.43;;;2.65;;
41837;SDS011;27511;52.042;5.178;2024-01-25T00:12:49;15.32;;;3.30;;
41837;SDS011;27511;52.042;5.178;2024-01-25T00:15:15;12.32;;;2.70;;
41837;SDS011;27511;52.042;5.178;2024-01-25T00:17:43;14.25;;;2.38;;
41837;SDS011;27511;52.042;5.178;2024-01-25T00:20:09;10.73;;;2.85;;
41837;SDS011;27511;52.042;5.178;2024-01-25T00:22:35;13.45;;;2.95;;
41837;SDS011;27511;52.042;5.178;2024-01-25T00:25:02;16.25;;;2.85;;
41837;SDS011;27511;52.042;5.178;2024-01-25T00:27:31;11.48;;;2.35;;
41837;SDS011;27511;52.042;5.178;2024-01-25T00:29:57;11.07;;;2.67;;
41837;SDS011;27511;52.042;5.178;2024-01-25T00:32:22;13.43;;;3.78;;
41837;SDS011;27511;52.042;5.178;2024-01-25T00:34:48;11.80;;;2.80;;
41837;SDS011;27511;52.042;5.178;2024-01-25T00:37:14;11.20;;;2.53;;
41837;SDS011;27511;52.042;5.178;2024-01-25T00:39:41;8.35;;;2.65;;
41837;SDS011;27511;52.042;5.178;2024-01-25T00:42:07;20.38;;;3.38;;
41837;SDS011;27511;52.042;5.178;2024-01-25T00:44:33;13.32;;;3.08;;
41837;SDS011;27511;52.042;5.178;2024-01-25T00:46:58;13.02;;;2.67;;
41837;SDS011;27511;52.042;5.178;2024-01-25T00:49:24;13.75;;;3.42;;
41837;SDS011;27511;52.042;5.178;2024-01-25T00:51:50;21.58;;;3.67;;
41837;SDS011;27511;52.042;5.178;2024-01-25T00:54:23;12.32;;;2.67;;
41837;SDS011;27511;52.042;5.178;2024-01-25T00:56:49;13.10;;;2.67;;
41837;SDS011;27511;52.042;5.178;2024-01-25T00:59:17;9.88;;;3.03;;
41837;SDS011;27511;52.042;5.178;2024-01-25T01:01:43;11.35;;;2.90;;
41837;SDS011;27511;52.042;5.178;2024-01-25T01:04:11;16.13;;;3.25;;
41837;SDS011;27511;52.042;5.178;2024-01-25T01:06:37;13.95;;;2.55;;
41837;SDS011;27511;52.042;5.178;2024-01-25T01:09:03;12.90;;;3.00;;
41837;SDS011;27511;52.042;5.178;2024-01-25T01:11:29;15.48;;;2.92;;
41837;SDS011;27511;52.042;5.178;2024-01-25T01:13:55;11.85;;;2.75;;
41837;SDS011;27511;52.042;5.178;2024-01-25T01:16:22;14.43;;;3.63;;
41837;SDS011;27511;52.042;5.178;2024-01-25T01:18:48;20.70;;;2.85;;
41837;SDS011;27511;52.042;5.178;2024-01-25T01:21:14;14.70;;;3.15;;
41837;SDS011;27511;52.042;5.178;2024-01-25T01:23:39;15.95;;;2.65;;
41837;SDS011;27511;52.042;5.178;2024-01-25T01:26:05;13.77;;;3.83;;
41837;SDS011;27511;52.042;5.178;2024-01-25T01:28:30;13.15;;;3.50;;
41837;SDS011;27511;52.042;5.178;2024-01-25T01:30:56;14.13;;;2.85;;
41837;SDS011;27511;52.042;5.178;2024-01-25T01:33:22;13.07;;;3.08;;
41837;SDS011;27511;52.042;5.178;2024-01-25T01:35:47;12.50;;;2.08;;
41837;SDS011;27511;52.042;5.178;2024-01-25T01:38:13;21.48;;;3.78;;
41837;SDS011;27511;52.042;5.178;2024-01-25T01:40:39;14.70;;;2.88;;
41837;SDS011;27511;52.042;5.178;2024-01-25T01:43:04;12.05;;;2.63;;
41837;SDS011;27511;52.042;5.178;2024-01-25T01:45:30;23.27;;;4.20;;
41837;SDS011;27511;52.042;5.178;2024-01-25T01:47:56;10.63;;;2.30;;
41837;SDS011;27511;52.042;5.178;2024-01-25T01:50:23;13.73;;;2.90;;
41837;SDS011;27511;52.042;5.178;2024-01-25T01:52:49;17.35;;;2.92;;
41837;SDS011;27511;52.042;5.178;2024-01-25T01:55:19;11.00;;;2.45;;
41837;SDS011;27511;52.042;5.178;2024-01-25T01:57:48;15.10;;;2.75;;
41837;SDS011;27511;52.042;5.178;2024-01-25T02:00:14;9.60;;;2.78;;
41837;SDS011;27511;52.042;5.178;2024-01-25T02:02:43;11.15;;;2.08;;
41837;SDS011;27511;52.042;5.178;2024-01-25T02:05:10;16.42;;;2.97;;
41837;SDS011;27511;52.042;5.178;2024-01-25T02:07:38;9.95;;;3.60;;
41837;SDS011;27511;52.042;5.178;2024-01-25T02:10:05;15.93;;;3.05;;
41837;SDS011;27511;52.042;5.178;2024-01-25T02:12:32;11.15;;;3.00;;
41837;SDS011;27511;52.042;5.178;2024-01-25T02:14:57;10.60;;;2.97;;
41837;SDS011;27511;52.042;5.178;2024-01-25T02:17:23;15.95;;;3.75;;
41837;SDS011;27511;52.042;5.178;2024-01-25T02:19:52;10.10;;;2.28;;
41837;SDS011;27511;52.042;5.178;2024-01-25T02:22:28;18.55;;;3.33;;
41837;SDS011;27511;52.042;5.178;2024-01-25T02:24:54;16.48;;;2.80;;
41837;SDS011;27511;52.042;5.178;2024-01-25T02:29:54;16.00;;;3.42;;
41837;SDS011;27511;52.042;5.178;2024-01-25T02:32:19;10.60;;;2.67;;
41837;SDS011;27511;52.042;5.178;2024-01-25T02:34:45;11.02;;;3.17;;
41837;SDS011;27511;52.042;5.178;2024-01-25T02:37:10;10.32;;;2.75;;
41837;SDS011;27511;52.042;5.178;2024-01-25T02:39:37;14.85;;;2.58;;
41837;SDS011;27511;52.042;5.178;2024-01-25T02:42:02;9.40;;;2.08;;
41837;SDS011;27511;52.042;5.178;2024-01-25T02:44:28;11.98;;;2.83;;
41837;SDS011;27511;52.042;5.178;2024-01-25T02:46:54;13.20;;;2.40;;
41837;SDS011;27511;52.042;5.178;2024-01-25T02:49:19;11.73;;;2.78;;
41837;SDS011;27511;52.042;5.178;2024-01-25T02:51:45;17.42;;;2.85;;
41837;SDS011;27511;52.042;5.178;2024-01-25T02:54:11;12.60;;;3.45;;
41837;SDS011;27511;52.042;5.178;2024-01-25T02:56:36;9.48;;;3.22;;
41837;SDS011;27511;52.042;5.178;2024-01-25T02:59:05;10.15;;;2.22;;
41837;SDS011;27511;52.042;5.178;2024-01-25T03:01:40;10.48;;;2.25;;
41837;SDS011;27511;52.042;5.178;2024-01-25T03:04:06;15.93;;;2.55;;
41837;SDS011;27511;52.042;5.178;2024-01-25T03:06:32;9.85;;;2.22;;
41837;SDS011;27511;52.042;5.178;2024-01-25T03:08:58;20.92;;;2.35;;
41837;SDS011;27511;52.042;5.178;2024-01-25T03:11:24;7.38;;;2.33;;
41837;SDS011;27511;52.042;5.178;2024-01-25T03:13:49;15.60;;;3.92;;
41837;SDS011;27511;52.042;5.178;2024-01-25T03:16:15;13.27;;;3.88;;
41837;SDS011;27511;52.042;5.178;2024-01-25T03:18:40;21.10;;;3.53;;
41837;SDS011;27511;52.042;5.178;2024-01-25T03:21:07;16.30;;;3.35;;
41837;SDS011;27511;52.042;5.178;2024-01-25T03:23:33;12.63;;;2.80;;
41837;SDS011;27511;52.042;5.178;2024-01-25T03:25:58;6.88;;;2.63;;
41837;SDS011;27511;52.042;5.178;2024-01-25T03:28:26;11.13;;;2.55;;
41837;SDS011;27511;52.042;5.178;2024-01-25T03:30:52;13.80;;;3.13;;
41837;SDS011;27511;52.042;5.178;2024-01-25T03:33:18;9.32;;;1.83;;
41837;SDS011;27511;52.042;5.178;2024-01-25T03:35:43;9.55;;;2.50;;
41837;SDS011;27511;52.042;5.178;2024-01-25T03:38:09;10.70;;;2.58;;
41837;SDS011;27511;52.042;5.178;2024-01-25T03:40:34;11.38;;;2.22;;
41837;SDS011;27511;52.042;5.178;2024-01-25T03:43:00;11.13;;;2.45;;
41837;SDS011;27511;52.042;5.178;2024-01-25T03:45:26;10.00;;;2.95;;
41837;SDS011;27511;52.042;5.178;2024-01-25T03:47:51;11.88;;;2.33;;
41837;SDS011;27511;52.042;5.178;2024-01-25T03:50:17;8.82;;;2.30;;
41837;SDS011;27511;52.042;5.178;2024-01-25T03:52:42;9.55;;;3.05;;
41837;SDS011;27511;52.042;5.178;2024-01-25T03:55:08;12.85;;;2.65;;
41837;SDS011;27511;52.042;5.178;2024-01-25T03:57:33;8.82;;;1.88;;
41837;SDS011;27511;52.042;5.178;2024-01-25T04:00:02;10.15;;;2.33;;
41837;SDS011;27511;52.042;5.178;2024-01-25T04:02:28;9.73;;;3.25;;
41837;SDS011;27511;52.042;5.178;2024-01-25T04:04:53;6.80;;;2.00;;
41837;SDS011;27511;52.042;5.178;2024-01-25T04:07:19;9.02;;;2.35;;
41837;SDS011;27511;52.042;5.178;2024-01-25T04:09:44;10.93;;;2.72;;
41837;SDS011;27511;52.042;5.178;2024-01-25T04:12:15;8.85;;;2.15;;
41837;SDS011;27511;52.042;5.178;2024-01-25T04:14:41;10.45;;;2.30;;
41837;SDS011;27511;52.042;5.178;2024-01-25T04:17:06;14.13;;;2.58;;
41837;SDS011;27511;52.042;5.178;2024-01-25T04:19:32;9.15;;;2.70;;
41837;SDS011;27511;52.042;5.178;2024-01-25T04:21:57;8.30;;;2.30;;
41837;SDS011;27511;52.042;5.178;2024-01-25T04:24:23;9.23;;;2.08;;
41837;SDS011;27511;52.042;5.178;2024-01-25T04:26:49;4.80;;;1.60;;
41837;SDS011;27511;52.042;5.178;2024-01-25T04:29:14;12.68;;;2.38;;
41837;SDS011;27511;52.042;5.178;2024-01-25T04:31:43;14.45;;;2.50;;
41837;SDS011;27511;52.042;5.178;2024-01-25T04:34:10;10.30;;;2.53;;
41837;SDS011;27511;52.042;5.178;2024-01-25T04:36:36;13.93;;;2.53;;
41837;SDS011;27511;52.042;5.178;2024-01-25T04:39:01;12.10;;;2.15;;
41837;SDS011;27511;52.042;5.178;2024-01-25T04:41:27;11.50;;;2.67;;
41837;SDS011;27511;52.042;5.178;2024-01-25T04:43:52;12.05;;;3.22;;
41837;SDS011;27511;52.042;5.178;2024-01-25T04:46:18;11.10;;;2.90;;
41837;SDS011;27511;52.042;5.178;2024-01-25T04:48:43;17.25;;;3.47;;
41837;SDS011;27511;52.042;5.178;2024-01-25T04:51:19;14.43;;;3.35;;
41837;SDS011;27511;52.042;5.178;2024-01-25T04:53:45;6.20;;;2.25;;
41837;SDS011;27511;52.042;5.178;2024-01-25T04:56:11;10.77;;;2.65;;
41837;SDS011;27511;52.042;5.178;2024-01-25T04:58:37;11.63;;;3.33;;
41837;SDS011;27511;52.042;5.178;2024-01-25T05:01:03;11.25;;;2.75;;
41837;SDS011;27511;52.042;5.178;2024-01-25T05:03:29;10.50;;;2.67;;
41837;SDS011;27511;52.042;5.178;2024-01-25T05:05:55;10.00;;;3.08;;
41837;SDS011;27511;52.042;5.178;2024-01-25T05:08:21;7.22;;;2.63;;
41837;SDS011;27511;52.042;5.178;2024-01-25T05:10:49;10.38;;;3.03;;
41837;SDS011;27511;52.042;5.178;2024-01-25T05:13:15;12.65;;;3.20;;
41837;SDS011;27511;52.042;5.178;2024-01-25T05:15:41;14.75;;;2.72;;
41837;SDS011;27511;52.042;5.178;2024-01-25T05:18:06;14.75;;;3.15;;
41837;SDS011;27511;52.042;5.178;2024-01-25T05:20:32;11.65;;;2.72;;
41837;SDS011;27511;52.042;5.178;2024-01-25T05:22:59;10.40;;;3.25;;
41837;SDS011;27511;52.042;5.178;2024-01-25T05:25:26;10.18;;;3.42;;
41837;SDS011;27511;52.042;5.178;2024-01-25T05:27:52;12.40;;;2.63;;
41837;SDS011;27511;52.042;5.178;2024-01-25T05:30:18;11.70;;;2.85;;
41837;SDS011;27511;52.042;5.178;2024-01-25T05:32:44;13.20;;;3.10;;
41837;SDS011;27511;52.042;5.178;2024-01-25T05:35:10;14.05;;;2.70;;
41837;SDS011;27511;52.042;5.178;2024-01-25T05:37:36;7.95;;;2.72;;
41837;SDS011;27511;52.042;5.178;2024-01-25T05:40:02;16.08;;;3.95;;
41837;SDS011;27511;52.042;5.178;2024-01-25T05:42:30;12.80;;;2.53;;
41837;SDS011;27511;52.042;5.178;2024-01-25T05:44:58;12.93;;;2.95;;
41837;SDS011;27511;52.042;5.178;2024-01-25T05:47:24;14.65;;;2.83;;
41837;SDS011;27511;52.042;5.178;2024-01-25T05:49:50;12.85;;;3.33;;
41837;SDS011;27511;52.042;5.178;2024-01-25T05:52:16;6.32;;;2.55;;
41837;SDS011;27511;52.042;5.178;2024-01-25T05:54:42;10.07;;;2.60;;
41837;SDS011;27511;52.042;5.178;2024-01-25T05:57:08;10.73;;;2.75;;
41837;SDS011;27511;52.042;5.178;2024-01-25T05:59:34;9.40;;;2.55;;
41837;SDS011;27511;52.042;5.178;2024-01-25T06:02:00;12.95;;;2.88;;
41837;SDS011;27511;52.042;5.178;2024-01-25T06:04:26;11.73;;;3.10;;
41837;SDS011;27511;52.042;5.178;2024-01-25T06:06:51;11.60;;;3.30;;
41837;SDS011;27511;52.042;5.178;2024-01-25T06:09:17;10.55;;;3.92;;
41837;SDS011;27511;52.042;5.178;2024-01-25T06:11:44;12.55;;;3.38;;
41837;SDS011;27511;52.042;5.178;2024-01-25T06:14:11;11.65;;;3.58;;
41837;SDS011;27511;52.042;5.178;2024-01-25T06:16:36;15.20;;;3.42;;
41837;SDS011;27511;52.042;5.178;2024-01-25T06:19:03;12.77;;;4.35;;
41837;SDS011;27511;52.042;5.178;2024-01-25T06:21:29;15.85;;;5.80;;
41837;SDS011;27511;52.042;5.178;2024-01-25T06:23:54;15.35;;;7.63;;
41837;SDS011;27511;52.042;5.178;2024-01-25T06:26:20;18.90;;;8.88;;
41837;SDS011;27511;52.042;5.178;2024-01-25T06:28:45;20.38;;;9.13;;
41837;SDS011;27511;52.042;5.178;2024-01-25T06:31:11;28.83;;;12.05;;
41837;SDS011;27511;52.042;5.178;2024-01-25T06:33:37;27.17;;;11.57;;
41837;SDS011;27511;52.042;5.178;2024-01-25T06:36:02;25.58;;;11.23;;
41837;SDS011;27511;52.042;5.178;2024-01-25T06:38:28;26.48;;;12.77;;
41837;SDS011;27511;52.042;5.178;2024-01-25T06:40:53;27.65;;;13.52;;
41837;SDS011;27511;52.042;5.178;2024-01-25T06:43:19;27.52;;;15.68;;
41837;SDS011;27511;52.042;5.178;2024-01-25T06:45:45;26.45;;;13.38;;
41837;SDS011;27511;52.042;5.178;2024-01-25T06:48:10;30.27;;;14.77;;
41837;SDS011;27511;52.042;5.178;2024-01-25T06:50:36;35.58;;;18.13;;
41837;SDS011;27511;52.042;5.178;2024-01-25T06:53:02;37.05;;;19.15;;
41837;SDS011;27511;52.042;5.178;2024-01-25T06:55:28;32.10;;;14.82;;
41837;SDS011;27511;52.042;5.178;2024-01-25T06:57:54;30.52;;;15.23;;
41837;SDS011;27511;52.042;5.178;2024-01-25T07:00:20;27.85;;;13.35;;
41837;SDS011;27511;52.042;5.178;2024-01-25T07:02:46;24.98;;;13.38;;
41837;SDS011;27511;52.042;5.178;2024-01-25T07:05:12;21.80;;;12.05;;
41837;SDS011;27511;52.042;5.178;2024-01-25T07:07:38;25.77;;;12.05;;
41837;SDS011;27511;52.042;5.178;2024-01-25T07:10:05;24.02;;;11.90;;
41837;SDS011;27511;52.042;5.178;2024-01-25T07:12:34;25.55;;;12.27;;
41837;SDS011;27511;52.042;5.178;2024-01-25T07:15:00;23.52;;;11.55;;
41837;SDS011;27511;52.042;5.178;2024-01-25T07:17:25;15.75;;;9.15;;
41837;SDS011;27511;52.042;5.178;2024-01-25T07:19:51;23.08;;;10.20;;
41837;SDS011;27511;52.042;5.178;2024-01-25T07:22:17;20.95;;;9.90;;
41837;SDS011;27511;52.042;5.178;2024-01-25T07:24:43;18.85;;;9.20;;
41837;SDS011;27511;52.042;5.178;2024-01-25T07:27:09;15.85;;;8.85;;
41837;SDS011;27511;52.042;5.178;2024-01-25T07:29:35;20.55;;;7.68;;
41837;SDS011;27511;52.042;5.178;2024-01-25T07:32:02;17.33;;;7.70;;
41837;SDS011;27511;52.042;5.178;2024-01-25T07:34:28;17.08;;;6.65;;
41837;SDS011;27511;52.042;5.178;2024-01-25T07:36:53;12.77;;;4.95;;
41837;SDS011;27511;52.042;5.178;2024-01-25T07:39:19;15.55;;;4.97;;
41837;SDS011;27511;52.042;5.178;2024-01-25T07:41:47;10.70;;;4.22;;
41837;SDS011;27511;52.042;5.178;2024-01-25T07:44:42;12.60;;;4.55;;
41837;SDS011;27511;52.042;5.178;2024-01-25T07:47:42;16.88;;;4.47;;
41837;SDS011;27511;52.042;5.178;2024-01-25T07:50:09;13.85;;;3.20;;
41837;SDS011;27511;52.042;5.178;2024-01-25T07:52:35;11.32;;;3.67;;
41837;SDS011;27511;52.042;5.178;2024-01-25T07:55:00;20.05;;;3.95;;
41837;SDS011;27511;52.042;5.178;2024-01-25T07:57:29;17.80;;;3.47;;
41837;SDS011;27511;52.042;5.178;2024-01-25T07:59:54;13.38;;;3.50;;
41837;SDS011;27511;52.042;5.178;2024-01-25T08:02:20;13.13;;;3.50;;
41837;SDS011;27511;52.042;5.178;2024-01-25T08:04:55;16.35;;;3.00;;
41837;SDS011;27511;52.042;5.178;2024-01-25T08:07:22;14.52;;;3.72;;
41837;SDS011;27511;52.042;5.178;2024-01-25T08:09:48;21.83;;;3.97;;
41837;SDS011;27511;52.042;5.178;2024-01-25T08:12:16;18.65;;;3.53;;
41837;SDS011;27511;52.042;5.178;2024-01-25T08:14:42;9.15;;;3.00;;
41837;SDS011;27511;52.042;5.178;2024-01-25T08:17:09;14.73;;;3.65;;
41837;SDS011;27511;52.042;5.178;2024-01-25T08:19:34;11.75;;;3.83;;
41837;SDS011;27511;52.042;5.178;2024-01-25T08:22:00;12.55;;;3.65;;
41837;SDS011;27511;52.042;5.178;2024-01-25T08:24:27;13.80;;;3.65;;
41837;SDS011;27511;52.042;5.178;2024-01-25T08:26:52;11.35;;;3.63;;
41837;SDS011;27511;52.042;5.178;2024-01-25T08:29:18;15.43;;;4.43;;
41837;SDS011;27511;52.042;5.178;2024-01-25T08:31:44;13.57;;;3.38;;
41837;SDS011;27511;52.042;5.178;2024-01-25T08:34:11;14.02;;;3.13;;
41837;SDS011;27511;52.042;5.178;2024-01-25T08:36:36;15.52;;;4.22;;
41837;SDS011;27511;52.042;5.178;2024-01-25T08:39:02;11.25;;;3.70;;
41837;SDS011;27511;52.042;5.178;2024-01-25T08:41:29;8.80;;;3.10;;
41837;SDS011;27511;52.042;5.178;2024-01-25T08:43:54;9.80;;;3.30;;
41837;SDS011;27511;52.042;5.178;2024-01-25T08:46:20;11.18;;;3.33;;
41837;SDS011;27511;52.042;5.178;2024-01-25T08:48:45;14.13;;;3.85;;
41837;SDS011;27511;52.042;5.178;2024-01-25T08:51:11;16.35;;;3.20;;
41837;SDS011;27511;52.042;5.178;2024-01-25T08:53:36;16.23;;;4.13;;
41837;SDS011;27511;52.042;5.178;2024-01-25T08:56:02;16.75;;;4.38;;
41837;SDS011;27511;52.042;5.178;2024-01-25T08:58:29;13.35;;;3.80;;
41837;SDS011;27511;52.042;5.178;2024-01-25T09:00:55;14.73;;;3.70;;
41837;SDS011;27511;52.042;5.178;2024-01-25T09:03:21;9.73;;;3.63;;
41837;SDS011;27511;52.042;5.178;2024-01-25T09:05:47;23.10;;;4.70;;
41837;SDS011;27511;52.042;5.178;2024-01-25T09:08:13;21.73;;;4.78;;
41837;SDS011;27511;52.042;5.178;2024-01-25T09:10:40;12.80;;;4.35;;
41837;SDS011;27511;52.042;5.178;2024-01-25T09:13:06;10.00;;;3.53;;
41837;SDS011;27511;52.042;5.178;2024-01-25T09:15:32;13.90;;;3.97;;
41837;SDS011;27511;52.042;5.178;2024-01-25T09:17:57;14.45;;;3.53;;
41837;SDS011;27511;52.042;5.178;2024-01-25T09:20:23;14.50;;;3.85;;
41837;SDS011;27511;52.042;5.178;2024-01-25T09:22:49;16.38;;;4.05;;
41837;SDS011;27511;52.042;5.178;2024-01-25T09:25:14;17.13;;;4.85;;
41837;SDS011;27511;52.042;5.178;2024-01-25T09:27:46;16.15;;;3.70;;
41837;SDS011;27511;52.042;5.178;2024-01-25T09:30:12;14.05;;;3.70;;
41837;SDS011;27511;52.042;5.178;2024-01-25T09:32:38;16.33;;;3.88;;
41837;SDS011;27511;52.042;5.178;2024-01-25T09:35:04;15.15;;;4.93;;
41837;SDS011;27511;52.042;5.178;2024-01-25T09:37:30;14.90;;;4.05;;
41837;SDS011;27511;52.042;5.178;2024-01-25T09:39:55;13.98;;;4.05;;
41837;SDS011;27511;52.042;5.178;2024-01-25T09:42:23;10.82;;;4.35;;
41837;SDS011;27511;52.042;5.178;2024-01-25T09:44:49;8.55;;;3.58;;
41837;SDS011;27511;52.042;5.178;2024-01-25T09:47:15;13.77;;;4.03;;
41837;SDS011;27511;52.042;5.178;2024-01-25T09:49:41;18.00;;;5.15;;
41837;SDS011;27511;52.042;5.178;2024-01-25T09:52:09;19.45;;;4.90;;
41837;SDS011;27511;52.042;5.178;2024-01-25T09:54:37;15.98;;;5.22;;
41837;SDS011;27511;52.042;5.178;2024-01-25T09:57:11;13.60;;;4.20;;
41837;SDS011;27511;52.042;5.178;2024-01-25T09:59:42;16.55;;;5.00;;
41837;SDS011;27511;52.042;5.178;2024-01-25T10:02:09;16.33;;;5.20;;
41837;SDS011;27511;52.042;5.178;2024-01-25T10:04:35;12.55;;;3.10;;
41837;SDS011;27511;52.042;5.178;2024-01-25T10:07:01;14.27;;;3.85;;
41837;SDS011;27511;52.042;5.178;2024-01-25T10:09:27;16.17;;;3.78;;
41837;SDS011;27511;52.042;5.178;2024-01-25T10:11:53;18.38;;;4.53;;
41837;SDS011;27511;52.042;5.178;2024-01-25T10:14:18;15.35;;;4.50;;
41837;SDS011;27511;52.042;5.178;2024-01-25T10:16:47;23.10;;;4.97;;
41837;SDS011;27511;52.042;5.178;2024-01-25T10:19:12;16.25;;;4.47;;
41837;SDS011;27511;52.042;5.178;2024-01-25T10:21:40;16.85;;;4.88;;
41837;SDS011;27511;52.042;5.178;2024-01-25T10:24:06;18.08;;;4.85;;
41837;SDS011;27511;52.042;5.178;2024-01-25T10:26:31;20.60;;;5.43;;
41837;SDS011;27511;52.042;5.178;2024-01-25T10:29:00;11.15;;;4.07;;
41837;SDS011;27511;52.042;5.178;2024-01-25T10:31:26;13.68;;;4.50;;
41837;SDS011;27511;52.042;5.178;2024-01-25T10:33:54;11.80;;;4.45;;
41837;SDS011;27511;52.042;5.178;2024-01-25T10:36:20;16.20;;;4.82;;
41837;SDS011;27511;52.042;5.178;2024-01-25T10:38:47;20.17;;;4.57;;
41837;SDS011;27511;52.042;5.178;2024-01-25T10:41:14;17.83;;;4.45;;
41837;SDS011;27511;52.042;5.178;2024-01-25T10:43:40;19.90;;;4.78;;
41837;SDS011;27511;52.042;5.178;2024-01-25T10:46:06;15.52;;;4.70;;
41837;SDS011;27511;52.042;5.178;2024-01-25T10:48:33;18.15;;;5.72;;
41837;SDS011;27511;52.042;5.178;2024-01-25T10:50:59;17.30;;;4.75;;
41837;SDS011;27511;52.042;5.178;2024-01-25T10:53:29;18.77;;;4.63;;
41837;SDS011;27511;52.042;5.178;2024-01-25T10:55:57;19.27;;;5.63;;
41837;SDS011;27511;52.042;5.178;2024-01-25T10:58:23;13.43;;;4.60;;
41837;SDS011;27511;52.042;5.178;2024-01-25T11:00:54;15.05;;;5.45;;
41837;SDS011;27511;52.042;5.178;2024-01-25T11:03:22;15.45;;;6.75;;
41837;SDS011;27511;52.042;5.178;2024-01-25T11:05:51;16.45;;;4.93;;
41837;SDS011;27511;52.042;5.178;2024-01-25T11:08:19;14.43;;;5.88;;
41837;SDS011;27511;52.042;5.178;2024-01-25T11:10:48;18.75;;;4.95;;
41837;SDS011;27511;52.042;5.178;2024-01-25T11:13:16;24.98;;;5.50;;
41837;SDS011;27511;52.042;5.178;2024-01-25T11:15:48;11.50;;;4.25;;
41837;SDS011;27511;52.042;5.178;2024-01-25T11:18:14;15.70;;;5.78;;
41837;SDS011;27511;52.042;5.178;2024-01-25T11:20:40;25.33;;;6.30;;
41837;SDS011;27511;52.042;5.178;2024-01-25T11:23:06;19.90;;;6.00;;
41837;SDS011;27511;52.042;5.178;2024-01-25T11:25:36;18.58;;;5.72;;
41837;SDS011;27511;52.042;5.178;2024-01-25T11:28:03;16.75;;;5.43;;
41837;SDS011;27511;52.042;5.178;2024-01-25T11:30:32;22.77;;;6.05;;
41837;SDS011;27511;52.042;5.178;2024-01-25T11:32:58;12.43;;;5.03;;
41837;SDS011;27511;52.042;5.178;2024-01-25T11:35:24;18.15;;;6.38;;
41837;SDS011;27511;52.042;5.178;2024-01-25T11:37:50;23.10;;;6.43;;
41837;SDS011;27511;52.042;5.178;2024-01-25T11:40:16;19.17;;;6.38;;
41837;SDS011;27511;52.042;5.178;2024-01-25T11:42:43;20.85;;;5.75;;
41837;SDS011;27511;52.042;5.178;2024-01-25T11:45:11;19.25;;;6.50;;
41837;SDS011;27511;52.042;5.178;2024-01-25T11:47:37;24.67;;;6.70;;
41837;SDS011;27511;52.042;5.178;2024-01-25T11:50:04;24.52;;;6.70;;
41837;SDS011;27511;52.042;5.178;2024-01-25T11:52:30;14.82;;;6.40;;
41837;SDS011;27511;52.042;5.178;2024-01-25T11:55:01;17.60;;;6.63;;
41837;SDS011;27511;52.042;5.178;2024-01-25T11:57:27;21.90;;;7.80;;
41837;SDS011;27511;52.042;5.178;2024-01-25T11:59:55;23.20;;;7.00;;
41837;SDS011;27511;52.042;5.178;2024-01-25T12:02:21;21.52;;;7.18;;
41837;SDS011;27511;52.042;5.178;2024-01-25T12:04:50;22.80;;;7.18;;
41837;SDS011;27511;52.042;5.178;2024-01-25T12:07:18;13.65;;;6.72;;
41837;SDS011;27511;52.042;5.178;2024-01-25T12:09:45;27.70;;;7.03;;
41837;SDS011;27511;52.042;5.178;2024-01-25T12:12:22;17.33;;;6.47;;
41837;SDS011;27511;52.042;5.178;2024-01-25T12:14:47;21.88;;;6.72;;
41837;SDS011;27511;52.042;5.178;2024-01-25T12:17:13;18.50;;;6.72;;
41837;SDS011;27511;52.042;5.178;2024-01-25T12:19:38;21.52;;;7.50;;
41837;SDS011;27511;52.042;5.178;2024-01-25T12:22:04;20.98;;;7.65;;
41837;SDS011;27511;52.042;5.178;2024-01-25T12:24:30;22.52;;;7.05;;
41837;SDS011;27511;52.042;5.178;2024-01-25T12:26:56;20.75;;;6.78;;
41837;SDS011;27511;52.042;5.178;2024-01-25T12:29:21;22.05;;;6.95;;
41837;SDS011;27511;52.042;5.178;2024-01-25T12:31:48;21.55;;;7.47;;
41837;SDS011;27511;52.042;5.178;2024-01-25T12:34:14;22.27;;;6.65;;
41837;SDS011;27511;52.042;5.178;2024-01-25T12:36:42;17.00;;;6.63;;
41837;SDS011;27511;52.042;5.178;2024-01-25T12:39:08;18.25;;;8.48;;
41837;SDS011;27511;52.042;5.178;2024-01-25T12:41:33;22.80;;;7.72;;
41837;SDS011;27511;52.042;5.178;2024-01-25T12:44:00;25.30;;;6.65;;
41837;SDS011;27511;52.042;5.178;2024-01-25T12:46:26;17.05;;;6.55;;
41837;SDS011;27511;52.042;5.178;2024-01-25T12:48:51;17.33;;;6.80;;
41837;SDS011;27511;52.042;5.178;2024-01-25T12:51:20;16.48;;;7.30;;
41837;SDS011;27511;52.042;5.178;2024-01-25T12:53:46;14.45;;;6.68;;
41837;SDS011;27511;52.042;5.178;2024-01-25T12:56:13;20.30;;;7.35;;
41837;SDS011;27511;52.042;5.178;2024-01-25T12:58:39;19.83;;;7.32;;
41837;SDS011;27511;52.042;5.178;2024-01-25T13:01:05;24.27;;;6.60;;
41837;SDS011;27511;52.042;5.178;2024-01-25T13:03:31;24.38;;;6.32;;
41837;SDS011;27511;52.042;5.178;2024-01-25T13:06:00;19.15;;;7.30;;
41837;SDS011;27511;52.042;5.178;2024-01-25T13:08:28;23.20;;;7.57;;
41837;SDS011;27511;52.042;5.178;2024-01-25T13:10:56;20.33;;;7.63;;
41837;SDS011;27511;52.042;5.178;2024-01-25T13:13:25;25.27;;;8.35;;
41837;SDS011;27511;52.042;5.178;2024-01-25T13:15:53;28.67;;;8.18;;
41837;SDS011;27511;52.042;5.178;2024-01-25T13:18:24;17.17;;;6.97;;
41837;SDS011;27511;52.042;5.178;2024-01-25T13:20:50;20.60;;;7.70;;
41837;SDS011;27511;52.042;5.178;2024-01-25T13:23:18;17.80;;;5.75;;
41837;SDS011;27511;52.042;5.178;2024-01-25T13:25:43;24.90;;;6.85;;
41837;SDS011;27511;52.042;5.178;2024-01-25T13:28:09;21.98;;;6.80;;
41837;SDS011;27511;52.042;5.178;2024-01-25T13:30:35;20.35;;;6.47;;
41837;SDS011;27511;52.042;5.178;2024-01-25T13:33:00;15.55;;;6.38;;
41837;SDS011;27511;52.042;5.178;2024-01-25T13:35:26;19.88;;;6.40;;
41837;SDS011;27511;52.042;5.178;2024-01-25T13:37:54;18.60;;;7.22;;
41837;SDS011;27511;52.042;5.178;2024-01-25T13:40:25;18.65;;;6.20;;
41837;SDS011;27511;52.042;5.178;2024-01-25T13:42:51;25.48;;;7.10;;
41837;SDS011;27511;52.042;5.178;2024-01-25T13:45:17;20.30;;;7.00;;
41837;SDS011;27511;52.042;5.178;2024-01-25T13:47:44;15.43;;;5.88;;
41837;SDS011;27511;52.042;5.178;2024-01-25T13:50:12;27.27;;;7.43;;
41837;SDS011;27511;52.042;5.178;2024-01-25T13:52:37;18.55;;;5.95;;
41837;SDS011;27511;52.042;5.178;2024-01-25T13:55:03;21.23;;;7.43;;
41837;SDS011;27511;52.042;5.178;2024-01-25T13:57:32;21.25;;;6.85;;
41837;SDS011;27511;52.042;5.178;2024-01-25T14:00:00;22.05;;;6.75;;
41837;SDS011;27511;52.042;5.178;2024-01-25T14:02:26;17.73;;;6.40;;
41837;SDS011;27511;52.042;5.178;2024-01-25T14:04:52;19.85;;;6.60;;
41837;SDS011;27511;52.042;5.178;2024-01-25T14:07:17;15.93;;;6.97;;
41837;SDS011;27511;52.042;5.178;2024-01-25T14:09:43;23.73;;;7.20;;
41837;SDS011;27511;52.042;5.178;2024-01-25T14:12:09;26.25;;;7.22;;
41837;SDS011;27511;52.042;5.178;2024-01-25T14:14:37;19.30;;;6.07;;
41837;SDS011;27511;52.042;5.178;2024-01-25T14:17:05;20.77;;;5.93;;
41837;SDS011;27511;52.042;5.178;2024-01-25T14:19:31;24.08;;;7.00;;
41837;SDS011;27511;52.042;5.178;2024-01-25T14:21:57;22.65;;;6.80;;
41837;SDS011;27511;52.042;5.178;2024-01-25T14:24:22;21.02;;;6.75;;
41837;SDS011;27511;52.042;5.178;2024-01-25T14:26:48;24.45;;;6.88;;
41837;SDS011;27511;52.042;5.178;2024-01-25T14:29:14;23.70;;;7.68;;
41837;SDS011;27511;52.042;5.178;2024-01-25T14:31:39;24.83;;;6.55;;
41837;SDS011;27511;52.042;5.178;2024-01-25T14:34:06;23.70;;;8.00;;